createdAt,value
2022-12-15T00:00:34.315Z,-1.20
2022-12-15T00:10:37.913Z,-1.40
2022-12-15T00:20:39.829Z,-1.50
2022-12-15T00:30:43.095Z,-1.40
2022-12-15T00:40:45.432Z,-1.50
2022-12-15T00:50:48.695Z,-1.60
2022-12-15T01:00:50.631Z,-1.60
2022-12-15T01:10:53.865Z,-1.80
2022-12-15T01:20:56.556Z,-1.90
2022-12-15T01:30:59.949Z,-1.90
2022-12-15T01:41:05.099Z,-2.10
2022-12-15T01:51:25.214Z,-2.30
2022-12-15T02:01:27.244Z,-2.50
2022-12-15T02:12:00.812Z,-2.60
2022-12-15T02:22:17.955Z,-2.70
2022-12-15T02:32:25.473Z,-2.90
2022-12-15T02:42:30.468Z,-2.90
2022-12-15T02:52:47.500Z,-3.00
2022-12-15T03:02:52.812Z,-3.20
2022-12-15T03:12:56.236Z,-3.30
2022-12-15T03:22:58.156Z,-3.50
2022-12-15T03:33:01.450Z,-3.60
2022-12-15T03:43:03.371Z,-3.70
2022-12-15T03:53:06.674Z,-4.00
2022-12-15T04:03:10.668Z,-4.00
2022-12-15T04:13:14.069Z,-4.10
2022-12-15T04:23:16.004Z,-4.20
2022-12-15T04:33:19.839Z,-4.40
2022-12-15T04:43:21.788Z,-4.40
2022-12-15T04:53:25.043Z,-4.60
2022-12-15T05:03:26.963Z,-4.60
2022-12-15T05:13:30.647Z,-4.60
2022-12-15T05:23:33.095Z,-4.60
2022-12-15T05:33:36.683Z,-4.70
2022-12-15T05:43:38.591Z,-4.80
2022-12-15T05:53:42.783Z,-4.90
2022-12-15T06:03:45.255Z,-5.10
2022-12-15T06:13:49.199Z,-5.20
2022-12-15T06:23:51.652Z,-5.10
2022-12-15T06:34:01.421Z,-5.10
2022-12-15T06:44:04.946Z,-5.20
2022-12-15T06:54:09.160Z,-5.30
2022-12-15T07:04:11.195Z,-5.30
2022-12-15T07:14:14.743Z,-5.50
2022-12-15T07:24:16.647Z,-5.50
2022-12-15T07:34:20.164Z,-5.60
2022-12-15T07:44:22.059Z,-5.70
2022-12-15T07:54:25.384Z,-5.60
2022-12-15T08:04:27.343Z,-5.60
2022-12-15T08:14:30.637Z,-5.60
2022-12-15T08:24:32.552Z,-5.60
2022-12-15T08:34:35.881Z,-5.50
2022-12-15T08:44:37.777Z,-5.50
2022-12-15T08:54:41.044Z,-5.50
2022-12-15T09:04:43.058Z,-4.00
2022-12-15T09:14:47.158Z,-2.00
2022-12-15T09:24:49.083Z,-0.40
2022-12-15T09:34:52.860Z,0.90
2022-12-15T09:45:01.552Z,1.50
2022-12-15T09:55:17.940Z,2.50
2022-12-15T10:05:57.357Z,3.20
2022-12-15T10:16:00.657Z,3.70
2022-12-15T10:26:19.813Z,4.10
2022-12-15T10:36:23.212Z,4.60
2022-12-15T10:46:27.564Z,5.00
2022-12-15T10:56:33.951Z,5.40
2022-12-15T11:06:41.424Z,5.40
2022-12-15T11:16:48.931Z,4.30
2022-12-15T11:26:56.382Z,3.90
2022-12-15T11:37:34.493Z,3.00
2022-12-15T11:47:44.310Z,1.90
2022-12-15T11:58:17.418Z,1.30
2022-12-15T12:08:41.583Z,0.80
2022-12-15T12:18:51.150Z,0.60
2022-12-15T12:28:59.990Z,0.60
2022-12-15T12:39:03.915Z,0.80
2022-12-15T12:49:12.705Z,0.70
2022-12-15T12:59:38.457Z,0.70
2022-12-15T13:09:41.682Z,0.80
2022-12-15T13:20:20.670Z,1.00
2022-12-15T13:30:22.583Z,1.80
2022-12-15T13:40:51.390Z,2.70
2022-12-15T13:51:01.522Z,2.30
2022-12-15T14:01:20.035Z,2.00
2022-12-15T14:11:51.382Z,1.70
2022-12-15T14:21:52.462Z,1.70
2022-12-15T14:31:56.179Z,1.70
2022-12-15T14:41:59.823Z,1.60
2022-12-15T14:52:05.876Z,1.60
2022-12-15T15:02:17.434Z,1.60
2022-12-15T15:12:21.453Z,1.40
2022-12-15T15:22:37.274Z,1.20
2022-12-15T15:32:49.847Z,0.90
2022-12-15T15:42:53.337Z,0.80
2022-12-15T15:52:55.720Z,0.50
2022-12-15T16:02:59.133Z,0.30
2022-12-15T16:13:01.385Z,0.10
2022-12-15T16:23:11.150Z,0.00
2022-12-15T16:33:13.095Z,-0.20
2022-12-15T16:43:20.315Z,0.00
2022-12-15T16:53:25.597Z,-0.60
2022-12-15T17:03:29.129Z,-0.80
2022-12-15T17:13:40.635Z,-1.00
2022-12-15T17:23:51.340Z,-1.20
2022-12-15T17:33:53.364Z,-1.20
2022-12-15T17:44:24.097Z,-1.40
2022-12-15T17:54:19.964Z,-1.60
2022-12-15T18:04:23.442Z,-1.60
2022-12-15T18:14:27.386Z,-1.70
2022-12-15T18:24:30.740Z,-1.70
2022-12-15T18:34:32.665Z,-1.60
2022-12-15T18:44:35.955Z,-1.70
2022-12-15T18:54:37.856Z,-1.70
2022-12-15T19:04:41.340Z,-1.60
2022-12-15T19:14:43.440Z,-1.60
2022-12-15T19:24:46.789Z,-1.80
2022-12-15T19:34:49.294Z,-1.90
2022-12-15T19:44:52.656Z,-2.00
2022-12-15T19:54:54.646Z,-2.00
2022-12-15T20:04:57.923Z,-2.00
2022-12-15T20:14:59.884Z,-2.00
2022-12-15T20:25:03.336Z,-1.90
2022-12-15T20:35:05.858Z,-1.90
2022-12-15T20:45:12.714Z,-1.90
2022-12-15T20:55:14.983Z,-2.00
2022-12-15T21:05:21.158Z,-1.70
2022-12-15T21:15:23.762Z,-1.80
2022-12-15T21:25:27.104Z,-2.00
2022-12-15T21:35:31.872Z,-2.10
2022-12-15T21:45:35.380Z,-2.30
2022-12-15T21:55:37.285Z,-2.40
2022-12-15T22:05:40.603Z,-2.40
2022-12-15T22:15:42.640Z,-2.60
2022-12-15T22:25:47.357Z,-2.70
2022-12-15T22:35:50.525Z,-2.70
2022-12-15T22:45:55.378Z,-2.80
2022-12-15T22:55:58.034Z,-2.90
2022-12-15T23:06:03.098Z,-3.00
2022-12-15T23:16:06.002Z,-3.10
2022-12-15T23:26:09.443Z,-3.20
2022-12-15T23:36:12.074Z,-3.30
2022-12-15T23:46:15.458Z,-3.40
2022-12-15T23:56:19.111Z,-3.50
